Time;durP1;ratioP1;P1;durP2;ratioP2;P2;SDS_P1;SDS_P2;PMS_P1;PMS_P2;Temp;Humidity;BMP_temperature;BMP_pressure;BME280_temperature;BME280_humidity;BME280_pressure;Samples;Min_cycle;Max_cycle;Signal;HPM_P1;HPM_P2
2023/03/09 00:00:29;;;;;;;;;;;;;;;;;;4976077;28;6681;-68
2023/03/09 00:02:54;;;;;;;;;;;;;;;;;;4975790;28;7137;-68
2023/03/09 00:05:20;;;;;;;;;;;;;;;;;;4975956;28;7234;-68
2023/03/09 00:07:53;;;;;;;;;;;;;;;;;;4975780;28;7193;-68
2023/03/09 00:10:19;;;;;;;;;;;;;;;;;;4975857;28;7214;-68
2023/03/09 00:13:16;;;;;;;;;;;;;;;;;;4975540;28;6947;-68
2023/03/09 00:18:38;;;;;;;;;;;;;;;;;;4976587;28;7036;-68
2023/03/09 00:21:03;;;;;;;;;;;;;;;;;;4975854;28;7094;-67
2023/03/09 00:23:29;;;;;;;;;;;;;;;;;;4975655;28;7471;-68
2023/03/09 00:25:54;;;;;;;;;;;;;;;;;;4975459;28;6948;-68
2023/03/09 00:28:20;;;;;;;;;;;;;;;;;;4975233;28;7214;-68
2023/03/09 00:30:45;;;;;;;;;;;;;;;;;;4975708;28;7133;-67
2023/03/09 00:33:11;;;;;;;;;;;;;;;;;;4975577;28;7159;-68
2023/03/09 00:35:37;;;;;;;;;;;;;;;;;;4975600;28;7128;-68
2023/03/09 00:41:38;;;;;;;;;;;;;;;;;;5014488;28;6689;-68
2023/03/09 00:44:04;;;;;;;;;;;;;;;;;;5014275;28;7268;-68
2023/03/09 00:46:31;;;;;;;;;;;;;;;;;;5014647;28;7208;-68
2023/03/09 00:48:57;;;;;;;;;;;;;;;;;;5014686;28;7239;-68
2023/03/09 00:51:23;;;;;;;;;;;;;;;;;;5016346;28;6947;-68
2023/03/09 00:53:48;;;;;;;;;;;;;;;;;;5018820;28;7201;-68
2023/03/09 00:56:22;;;;;;;;;;;;;;;;;;5018132;28;6937;-67
2023/03/09 00:58:54;;;;;;;;;;;;;;;;;;5018232;28;7154;-68
2023/03/09 01:01:20;;;;;;;;;;;;;;;;;;5018177;28;6930;-67
2023/03/09 01:03:46;;;;;;;;;;;;;;;;;;5017997;28;7169;-68
2023/03/09 01:06:18;;;;;;;;;;;;;;;;;;5017984;28;7205;-67
2023/03/09 01:08:45;;;;;;;;;;;;;;;;;;5017683;28;6941;-68
2023/03/09 01:11:31;;;;;;;;;;;;;;;;;;5017934;28;7419;-68
2023/03/09 01:13:56;;;;;;;;;;;;;;;;;;5017907;28;7313;-68
2023/03/09 01:16:22;;;;;;;;;;;;;;;;;;5017817;28;7203;-68
2023/03/09 01:18:48;;;;;;;;;;;;;;;;;;5017863;28;7125;-68
2023/03/09 01:21:20;;;;;;;;;;;;;;;;;;5017593;28;7140;-68
2023/03/09 01:23:47;;;;;;;;;;;;;;;;;;5017700;28;7068;-68
2023/03/09 01:29:12;;;;;;;;;;;;;;;;;;5017355;28;7856;-68
2023/03/09 01:34:40;;;;;;;;;;;;;;;;;;5017354;28;6972;-68
2023/03/09 01:37:16;;;;;;;;;;;;;;;;;;5017478;28;7388;-68
2023/03/09 01:39:41;;;;;;;;;;;;;;;;;;5000836;28;8402;-68
2023/03/09 01:42:08;;;;;;;;;;;;;;;;;;5017440;28;7021;-66
2023/03/09 01:44:33;;;;;;;;;;;;;;;;;;5017236;28;7288;-68
2023/03/09 01:46:59;;;;;;;;;;;;;;;;;;5017496;28;7170;-68
2023/03/09 01:49:38;;;;;;;;;;;;;;;;;;5017243;28;7586;-68
2023/03/09 01:52:15;;;;;;;;;;;;;;;;;;5017157;28;7201;-68
2023/03/09 01:54:58;;;;;;;;;;;;;;;;;;5017479;28;7086;-68
2023/03/09 01:57:23;;;;;;;;;;;;;;;;;;5017042;28;7068;-67
2023/03/09 02:00:19;;;;;;;;;;;;;;;;;;5017086;28;7288;-68
2023/03/09 02:02:46;;;;;;;;;;;;;;;;;;5017348;28;7291;-68
2023/03/09 02:05:49;;;;;;;;;;;;;;;;;;5016982;28;7209;-68
2023/03/09 02:08:16;;;;;;;;;;;;;;;;;;4994686;28;7179;-68
2023/03/09 02:10:59;;;;;;;;;;;;;;;;;;4997262;28;7158;-68
2023/03/09 02:13:28;;;;;;;;;;;;;;;;;;4996922;28;7016;-67
2023/03/09 02:15:53;;;;;;;;;;;;;;;;;;4997166;28;6968;-68
2023/03/09 02:18:26;;;;;;;;;;;;;;;;;;4997060;28;7165;-67
2023/03/09 02:21:00;;;;;;;;;;;;;;;;;;4997809;28;7330;-67
2023/03/09 02:23:31;;;;;;;;;;;;;;;;;;4996596;28;6938;-68
2023/03/09 02:26:06;;;;;;;;;;;;;;;;;;4997221;28;7218;-68
2023/03/09 02:28:32;;;;;;;;;;;;;;;;;;4995927;28;7176;-68
2023/03/09 02:30:58;;;;;;;;;;;;;;;;;;4996928;28;7405;-67
2023/03/09 02:33:26;;;;;;;;;;;;;;;;;;4996373;28;7220;-67
2023/03/09 02:35:55;;;;;;;;;;;;;;;;;;4996821;28;6981;-68
2023/03/09 02:41:57;;;;;;;;;;;;;;;;;;4996503;28;6686;-68
2023/03/09 02:44:23;;;;;;;;;;;;;;;;;;4997463;28;7381;-68
2023/03/09 02:46:49;;;;;;;;;;;;;;;;;;4997460;28;7191;-68
2023/03/09 02:49:27;;;;;;;;;;;;;;;;;;4996375;28;7062;-68
2023/03/09 02:51:53;;;;;;;;;;;;;;;;;;4996904;28;7137;-68
2023/03/09 02:54:23;;;;;;;;;;;;;;;;;;4996369;28;7205;-68
2023/03/09 02:56:48;;;;;;;;;;;;;;;;;;4996400;28;7398;-68
2023/03/09 02:59:13;;;;;;;;;;;;;;;;;;4996332;28;7295;-68
2023/03/09 03:01:39;;;;;;;;;;;;;;;;;;4996316;28;6903;-68
2023/03/09 03:04:04;;;;;;;;;;;;;;;;;;4996224;28;7150;-67
2023/03/09 03:06:30;;;;;;;;;;;;;;;;;;4996184;28;7060;-68
2023/03/09 03:08:55;;;;;;;;;;;;;;;;;;4996163;28;7326;-68
2023/03/09 03:11:26;;;;;;;;;;;;;;;;;;4996105;28;7171;-67
2023/03/09 03:13:51;;;;;;;;;;;;;;;;;;4995060;28;6960;-67
2023/03/09 03:16:17;;;;;;;;;;;;;;;;;;4995648;28;7145;-68
2023/03/09 03:18:42;;;;;;;;;;;;;;;;;;4978368;28;8410;-68
2023/03/09 03:21:23;;;;;;;;;;;;;;;;;;4996007;28;6929;-67
2023/03/09 03:24:06;;;;;;;;;;;;;;;;;;4995828;28;7308;-67
2023/03/09 03:26:32;;;;;;;;;;;;;;;;;;4995856;28;7222;-67
2023/03/09 03:29:19;;;;;;;;;;;;;;;;;;4995548;28;7382;-67
2023/03/09 03:31:44;;;;;;;;;;;;;;;;;;4995791;28;7041;-67
2023/03/09 03:34:10;;;;;;;;;;;;;;;;;;4995832;28;7073;-67
2023/03/09 03:39:58;;;;;;;;;;;;;;;;;;4939315;28;7420;-67
2023/03/09 03:42:24;;;;;;;;;;;;;;;;;;4936691;29;7186;-67
2023/03/09 03:44:59;;;;;;;;;;;;;;;;;;4936446;29;7030;-67
2023/03/09 03:47:25;;;;;;;;;;;;;;;;;;4936231;29;7287;-67
2023/03/09 03:49:50;;;;;;;;;;;;;;;;;;4935704;29;7373;-67
2023/03/09 03:52:35;;;;;;;;;;;;;;;;;;4934747;28;8464;-67
2023/03/09 03:55:05;;;;;;;;;;;;;;;;;;4954743;28;7965;-67
2023/03/09 03:57:31;;;;;;;;;;;;;;;;;;4955104;28;7192;-67
2023/03/09 03:59:59;;;;;;;;;;;;;;;;;;4954771;28;7003;-67
2023/03/09 04:02:41;;;;;;;;;;;;;;;;;;4954439;28;7374;-67
2023/03/09 04:05:07;;;;;;;;;;;;;;;;;;4954734;28;7137;-67
2023/03/09 04:10:40;;;;;;;;;;;;;;;;;;4972758;28;6689;-67
2023/03/09 04:13:17;;;;;;;;;;;;;;;;;;4995284;28;6934;-67
2023/03/09 04:15:43;;;;;;;;;;;;;;;;;;4995407;28;6965;-68
2023/03/09 04:18:09;;;;;;;;;;;;;;;;;;4995287;28;7121;-67
2023/03/09 04:20:59;;;;;;;;;;;;;;;;;;4995279;28;7143;-67
2023/03/09 04:23:24;;;;;;;;;;;;;;;;;;4995022;28;7048;-67
2023/03/09 04:28:52;;;;;;;;;;;;;;;;;;4998461;28;6709;-67
2023/03/09 04:34:33;;;;;;;;;;;;;;;;;;4998747;28;6737;-67
2023/03/09 04:36:58;;;;;;;;;;;;;;;;;;4998846;28;7128;-67
2023/03/09 04:39:24;;;;;;;;;;;;;;;;;;4999836;28;6915;-67
2023/03/09 04:41:49;;;;;;;;;;;;;;;;;;4998873;28;7197;-67
2023/03/09 04:44:17;;;;;;;;;;;;;;;;;;4999460;28;7118;-67
2023/03/09 04:46:42;;;;;;;;;;;;;;;;;;4998530;28;7890;-68
2023/03/09 04:49:08;;;;;;;;;;;;;;;;;;4998811;28;7141;-67
2023/03/09 04:51:49;;;;;;;;;;;;;;;;;;4998711;28;6797;-65
2023/03/09 04:54:15;;;;;;;;;;;;;;;;;;4985378;28;7279;-68
2023/03/09 04:57:03;;;;;;;;;;;;;;;;;;4979578;28;6961;-68
2023/03/09 04:59:29;;;;;;;;;;;;;;;;;;4999914;28;7207;-68
2023/03/09 05:02:18;;;;;;;;;;;;;;;;;;4998455;28;7480;-68
2023/03/09 05:04:44;;;;;;;;;;;;;;;;;;4998539;28;7078;-67
2023/03/09 05:07:10;;;;;;;;;;;;;;;;;;4991582;28;7120;-67
2023/03/09 05:09:35;;;;;;;;;;;;;;;;;;4978966;28;7179;-68
2023/03/09 05:12:01;;;;;;;;;;;;;;;;;;4978837;28;7323;-68
2023/03/09 05:18:06;;;;;;;;;;;;;;;;;;4978431;28;6990;-71
2023/03/09 05:20:32;;;;;;;;;;;;;;;;;;4979293;28;7215;-71
2023/03/09 05:22:58;;;;;;;;;;;;;;;;;;4979031;28;7377;-71
2023/03/09 05:25:24;;;;;;;;;;;;;;;;;;4978741;28;7185;-71
2023/03/09 05:27:49;;;;;;;;;;;;;;;;;;4978476;28;7180;-71
2023/03/09 05:30:28;;;;;;;;;;;;;;;;;;4985878;28;7043;-71
2023/03/09 05:32:53;;;;;;;;;;;;;;;;;;4993157;28;7690;-71
2023/03/09 05:35:23;;;;;;;;;;;;;;;;;;4978447;28;7192;-71
2023/03/09 05:37:48;;;;;;;;;;;;;;;;;;4982424;28;7117;-71
2023/03/09 05:46:20;;;;;;;;;;;;;;;;;;4978138;28;6678;-71
2023/03/09 05:48:47;;;;;;;;;;;;;;;;;;4992214;28;7138;-72
2023/03/09 05:51:13;;;;;;;;;;;;;;;;;;4978175;28;7132;-72
2023/03/09 05:53:55;;;;;;;;;;;;;;;;;;4978147;28;6962;-72
2023/03/09 05:56:21;;;;;;;;;;;;;;;;;;4983216;28;7396;-72
2023/03/09 05:58:50;;;;;;;;;;;;;;;;;;4960729;28;8537;-72
2023/03/09 06:01:43;;;;;;;;;;;;;;;;;;4977962;28;7169;-72
2023/03/09 06:04:08;;;;;;;;;;;;;;;;;;4979608;28;7144;-72
2023/03/09 06:06:52;;;;;;;;;;;;;;;;;;4997119;28;7350;-72
2023/03/09 06:09:18;;;;;;;;;;;;;;;;;;4997027;28;7014;-72
2023/03/09 06:14:54;;;;;;;;;;;;;;;;;;4982785;28;6920;-69
2023/03/09 06:17:20;;;;;;;;;;;;;;;;;;4977428;28;7034;-72
2023/03/09 06:19:45;;;;;;;;;;;;;;;;;;4977720;28;7018;-71
2023/03/09 06:25:14;;;;;;;;;;;;;;;;;;4977397;28;6932;-70
2023/03/09 06:27:53;;;;;;;;;;;;;;;;;;4982441;28;7179;-71
2023/03/09 06:30:21;;;;;;;;;;;;;;;;;;4997022;28;7047;-71
2023/03/09 06:32:47;;;;;;;;;;;;;;;;;;4996618;28;7153;-71
2023/03/09 06:38:15;;;;;;;;;;;;;;;;;;4996510;28;6681;-71
2023/03/09 06:40:45;;;;;;;;;;;;;;;;;;4996713;28;6950;-71
2023/03/09 06:43:11;;;;;;;;;;;;;;;;;;4996515;28;6931;-71
2023/03/09 06:45:37;;;;;;;;;;;;;;;;;;4996348;28;6947;-71
2023/03/09 06:48:02;;;;;;;;;;;;;;;;;;4976354;28;7130;-72
2023/03/09 06:50:27;;;;;;;;;;;;;;;;;;4981048;28;7005;-71
2023/03/09 06:52:58;;;;;;;;;;;;;;;;;;4996402;28;7973;-71
2023/03/09 06:55:23;;;;;;;;;;;;;;;;;;4996699;28;6944;-72
2023/03/09 06:57:52;;;;;;;;;;;;;;;;;;4996130;28;7338;-72
2023/03/09 07:00:49;;;;;;;;;;;;;;;;;;4996159;28;7208;-71
2023/03/09 07:03:16;;;;;;;;;;;;;;;;;;4996080;28;7253;-71
2023/03/09 07:05:42;;;;;;;;;;;;;;;;;;4996001;28;7046;-71
2023/03/09 07:08:16;;;;;;;;;;;;;;;;;;4984129;28;7219;-72
2023/03/09 07:10:56;;;;;;;;;;;;;;;;;;4976966;28;7229;-71
2023/03/09 07:13:21;;;;;;;;;;;;;;;;;;4976593;28;7385;-70
2023/03/09 07:15:46;;;;;;;;;;;;;;;;;;4976532;28;7207;-70
2023/03/09 07:18:25;;;;;;;;;;;;;;;;;;4976424;28;7229;-70
2023/03/09 07:20:51;;;;;;;;;;;;;;;;;;4976524;28;7081;-69
2023/03/09 07:23:17;;;;;;;;;;;;;;;;;;4976530;28;6908;-70
2023/03/09 07:25:42;;;;;;;;;;;;;;;;;;4976355;28;7366;-70
2023/03/09 07:28:20;;;;;;;;;;;;;;;;;;4976118;28;7402;-70
2023/03/09 07:30:46;;;;;;;;;;;;;;;;;;4976347;28;7002;-70
2023/03/09 07:33:11;;;;;;;;;;;;;;;;;;4976340;28;6936;-69
2023/03/09 07:35:38;;;;;;;;;;;;;;;;;;4976404;28;7202;-70
2023/03/09 07:38:04;;;;;;;;;;;;;;;;;;4975906;28;6923;-70
2023/03/09 07:46:36;;;;;;;;;;;;;;;;;;4976023;28;6917;-70
2023/03/09 07:49:01;;;;;;;;;;;;;;;;;;4976026;28;7164;-70
2023/03/09 07:51:44;;;;;;;;;;;;;;;;;;4976196;28;7190;-70
2023/03/09 07:54:10;;;;;;;;;;;;;;;;;;4976081;28;7130;-70
2023/03/09 07:56:35;;;;;;;;;;;;;;;;;;4976086;28;7169;-70
2023/03/09 07:59:01;;;;;;;;;;;;;;;;;;4975592;28;7345;-70
2023/03/09 08:01:27;;;;;;;;;;;;;;;;;;4975908;28;7030;-70
2023/03/09 08:03:53;;;;;;;;;;;;;;;;;;4975916;28;7397;-70
2023/03/09 08:06:19;;;;;;;;;;;;;;;;;;4976000;28;6980;-70
2023/03/09 08:14:50;;;;;;;;;;;;;;;;;;4975573;28;6937;-70
2023/03/09 08:23:21;;;;;;;;;;;;;;;;;;4975467;28;6917;-71
2023/03/09 08:25:56;;;;;;;;;;;;;;;;;;4975480;28;7167;-71
2023/03/09 08:31:51;;;;;;;;;;;;;;;;;;4975583;28;6937;-71
2023/03/09 08:34:20;;;;;;;;;;;;;;;;;;4975718;28;7137;-71
2023/03/09 08:36:46;;;;;;;;;;;;;;;;;;4976186;28;7005;-71
2023/03/09 08:39:48;;;;;;;;;;;;;;;;;;4975408;28;7005;-71
2023/03/09 08:42:14;;;;;;;;;;;;;;;;;;4975881;28;7092;-71
2023/03/09 08:44:40;;;;;;;;;;;;;;;;;;4975700;28;7190;-71
2023/03/09 08:50:09;;;;;;;;;;;;;;;;;;4975927;28;6968;-71
2023/03/09 08:52:37;;;;;;;;;;;;;;;;;;4979870;28;6999;-71
2023/03/09 08:55:04;;;;;;;;;;;;;;;;;;4994919;28;7157;-71
2023/03/09 08:57:31;;;;;;;;;;;;;;;;;;4994949;28;7209;-71
2023/03/09 09:02:59;;;;;;;;;;;;;;;;;;4994594;28;6895;-71
2023/03/09 09:08:38;;;;;;;;;;;;;;;;;;4994622;28;6817;-70
2023/03/09 09:11:06;;;;;;;;;;;;;;;;;;4994872;28;7290;-70
2023/03/09 09:13:31;;;;;;;;;;;;;;;;;;4997813;28;6998;-70
2023/03/09 09:16:08;;;;;;;;;;;;;;;;;;4998081;28;6932;-70
2023/03/09 09:18:36;;;;;;;;;;;;;;;;;;4997767;28;7186;-70
2023/03/09 09:24:16;;;;;;;;;;;;;;;;;;4998137;28;6897;-70
2023/03/09 09:26:42;;;;;;;;;;;;;;;;;;4981256;28;8530;-70
2023/03/09 09:29:07;;;;;;;;;;;;;;;;;;4978742;28;7204;-70
2023/03/09 09:31:33;;;;;;;;;;;;;;;;;;4998147;28;7005;-70
2023/03/09 09:33:59;;;;;;;;;;;;;;;;;;4997850;28;7192;-70
2023/03/09 09:36:24;;;;;;;;;;;;;;;;;;4998839;28;7217;-70
2023/03/09 09:39:09;;;;;;;;;;;;;;;;;;4997844;28;7220;-70
2023/03/09 09:41:34;;;;;;;;;;;;;;;;;;4997433;28;7101;-71
2023/03/09 09:44:11;;;;;;;;;;;;;;;;;;4997794;28;7027;-71
2023/03/09 09:46:39;;;;;;;;;;;;;;;;;;4997635;28;7140;-71
2023/03/09 09:49:13;;;;;;;;;;;;;;;;;;4997633;28;7162;-71
2023/03/09 09:54:59;;;;;;;;;;;;;;;;;;4997657;28;6900;-70
2023/03/09 09:57:35;;;;;;;;;;;;;;;;;;4997316;28;7315;-70
2023/03/09 10:00:05;;;;;;;;;;;;;;;;;;4997568;28;7248;-70
2023/03/09 10:02:43;;;;;;;;;;;;;;;;;;4996693;28;7313;-70
2023/03/09 10:05:11;;;;;;;;;;;;;;;;;;4997273;28;7051;-70
2023/03/09 10:07:42;;;;;;;;;;;;;;;;;;4997155;28;7183;-70
2023/03/09 10:10:15;;;;;;;;;;;;;;;;;;4997215;28;7177;-70
2023/03/09 10:13:10;;;;;;;;;;;;;;;;;;4997093;28;7556;-70
2023/03/09 10:15:38;;;;;;;;;;;;;;;;;;4997280;28;7444;-70
2023/03/09 10:18:16;;;;;;;;;;;;;;;;;;4997029;28;7163;-70
2023/03/09 10:20:45;;;;;;;;;;;;;;;;;;4991442;28;7165;-70
2023/03/09 10:29:34;;;;;;;;;;;;;;;;;;4977633;28;6957;-70
2023/03/09 10:32:05;;;;;;;;;;;;;;;;;;4977534;28;7446;-70
2023/03/09 10:34:40;;;;;;;;;;;;;;;;;;4977639;28;7535;-70
2023/03/09 10:43:01;;;;;;;;;;;;;;;;;;4996774;28;7366;-70
2023/03/09 10:45:58;;;;;;;;;;;;;;;;;;4996746;28;7101;-70
2023/03/09 10:48:25;;;;;;;;;;;;;;;;;;4997126;28;7226;-70
2023/03/09 10:50:59;;;;;;;;;;;;;;;;;;4996616;28;7047;-71
2023/03/09 10:53:58;;;;;;;;;;;;;;;;;;4996458;28;7015;-70
2023/03/09 10:56:25;;;;;;;;;;;;;;;;;;4997395;28;7134;-71
2023/03/09 10:59:19;;;;;;;;;;;;;;;;;;4997209;28;7132;-70
2023/03/09 11:01:57;;;;;;;;;;;;;;;;;;;;;
2023/03/09 11:10:30;;;;;;;;;;;;;;;;;;4974820;28;7000;-70
2023/03/09 11:12:58;;;;;;;;;;;;;;;;;;4974833;28;6929;-69
2023/03/09 11:18:28;;;;;;;;;;;;;;;;;;4974633;28;6693;-70
2023/03/09 11:24:00;;;;;;;;;;;;;;;;;;4974354;28;7399;-70
2023/03/09 11:26:34;;;;;;;;;;;;;;;;;;4975132;28;7184;-70
2023/03/09 11:35:05;;;;;;;;;;;;;;;;;;4973797;28;6952;-69
2023/03/09 11:38:00;;;;;;;;;;;;;;;;;;4974157;28;6974;-70
2023/03/09 11:40:29;;;;;;;;;;;;;;;;;;4974571;28;8506;-69
2023/03/09 11:42:54;;;;;;;;;;;;;;;;;;5014988;28;7027;-69
2023/03/09 11:48:36;;;;;;;;;;;;;;;;;;5014951;28;6681;-69
2023/03/09 11:51:09;;;;;;;;;;;;;;;;;;5009086;28;7099;-69
2023/03/09 11:54:11;;;;;;;;;;;;;;;;;;5015120;28;7204;-68
2023/03/09 11:56:43;;;;;;;;;;;;;;;;;;5015147;28;7125;-68
2023/03/09 11:59:23;;;;;;;;;;;;;;;;;;5012412;28;7455;-68
2023/03/09 12:02:07;;;;;;;;;;;;;;;;;;5014135;28;7245;-69
2023/03/09 12:04:32;;;;;;;;;;;;;;;;;;4995570;28;7209;-68
2023/03/09 12:07:04;;;;;;;;;;;;;;;;;;4995515;28;7244;-69
2023/03/09 12:09:48;;;;;;;;;;;;;;;;;;5012576;28;7408;-68
2023/03/09 12:15:46;;;;;;;;;;;;;;;;;;5014700;28;6697;-68
2023/03/09 12:18:20;;;;;;;;;;;;;;;;;;5015126;28;7018;-68
2023/03/09 12:20:51;;;;;;;;;;;;;;;;;;5014799;28;7167;-68
2023/03/09 12:23:40;;;;;;;;;;;;;;;;;;5014434;28;7117;-68
2023/03/09 12:29:20;;;;;;;;;;;;;;;;;;5014523;28;6919;-68
2023/03/09 12:34:51;;;;;;;;;;;;;;;;;;5014571;28;6713;-68
2023/03/09 12:37:45;;;;;;;;;;;;;;;;;;5014738;28;7169;-68
2023/03/09 12:40:16;;;;;;;;;;;;;;;;;;5014560;28;7153;-69
2023/03/09 12:43:03;;;;;;;;;;;;;;;;;;5014709;28;7141;-68
2023/03/09 12:45:31;;;;;;;;;;;;;;;;;;5015012;28;7213;-68
2023/03/09 12:48:15;;;;;;;;;;;;;;;;;;5017502;28;7170;-68
2023/03/09 12:50:41;;;;;;;;;;;;;;;;;;5018510;28;7151;-68
2023/03/09 12:53:24;;;;;;;;;;;;;;;;;;5018384;28;7167;-68
2023/03/09 12:58:53;;;;;;;;;;;;;;;;;;5018056;28;6685;-68
2023/03/09 13:01:18;;;;;;;;;;;;;;;;;;5018132;28;7188;-68
2023/03/09 13:03:46;;;;;;;;;;;;;;;;;;5016984;28;7378;-68
2023/03/09 13:06:47;;;;;;;;;;;;;;;;;;5018130;28;7023;-68
2023/03/09 13:09:30;;;;;;;;;;;;;;;;;;4996761;28;7156;-68
2023/03/09 13:11:56;;;;;;;;;;;;;;;;;;5015628;28;7034;-68
2023/03/09 13:20:35;;;;;;;;;;;;;;;;;;5017712;28;6677;-65
2023/03/09 13:26:13;;;;;;;;;;;;;;;;;;5017635;28;6712;-65
2023/03/09 13:28:46;;;;;;;;;;;;;;;;;;5017896;28;7149;-65
2023/03/09 13:31:30;;;;;;;;;;;;;;;;;;5018280;28;7134;-65
2023/03/09 13:33:56;;;;;;;;;;;;;;;;;;5017441;28;7409;-65
2023/03/09 13:39:33;;;;;;;;;;;;;;;;;;5017395;28;6924;-65
2023/03/09 13:42:02;;;;;;;;;;;;;;;;;;5017414;28;7133;-65
2023/03/09 13:44:40;;;;;;;;;;;;;;;;;;5017491;28;6983;-65
2023/03/09 13:53:27;;;;;;;;;;;;;;;;;;5017342;28;6670;-65
2023/03/09 13:58:49;;;;;;;;;;;;;;;;;;5016247;28;7008;-65
2023/03/09 14:01:33;;;;;;;;;;;;;;;;;;5017206;28;7166;-65
2023/03/09 14:04:36;;;;;;;;;;;;;;;;;;5017052;28;7053;-65
2023/03/09 14:07:01;;;;;;;;;;;;;;;;;;5017894;28;7267;-66
2023/03/09 14:09:37;;;;;;;;;;;;;;;;;;5017311;28;7110;-65
2023/03/09 14:12:03;;;;;;;;;;;;;;;;;;5016805;28;7167;-66
2023/03/09 14:14:44;;;;;;;;;;;;;;;;;;5016921;28;7121;-66
2023/03/09 14:17:17;;;;;;;;;;;;;;;;;;5016859;28;7353;-65
2023/03/09 14:19:42;;;;;;;;;;;;;;;;;;5016881;28;7588;-66
2023/03/09 14:22:31;;;;;;;;;;;;;;;;;;5016985;28;6988;-66
2023/03/09 14:24:58;;;;;;;;;;;;;;;;;;5016662;28;7443;-66
2023/03/09 14:30:50;;;;;;;;;;;;;;;;;;5016232;28;6901;-66
2023/03/09 14:33:29;;;;;;;;;;;;;;;;;;5011225;28;7053;-65
2023/03/09 14:42:34;;;;;;;;;;;;;;;;;;5016113;28;6685;-65
2023/03/09 14:45:15;;;;;;;;;;;;;;;;;;5016227;28;7036;-66
2023/03/09 14:48:08;;;;;;;;;;;;;;;;;;5016352;28;7046;-65
2023/03/09 14:50:34;;;;;;;;;;;;;;;;;;5016316;28;7351;-66
2023/03/09 14:53:14;;;;;;;;;;;;;;;;;;5015420;28;7477;-66
2023/03/09 14:55:39;;;;;;;;;;;;;;;;;;5015678;28;7206;-66
2023/03/09 14:58:18;;;;;;;;;;;;;;;;;;5016018;28;7144;-65
2023/03/09 15:00:43;;;;;;;;;;;;;;;;;;5015821;28;6983;-65
2023/03/09 15:03:10;;;;;;;;;;;;;;;;;;5015983;28;7150;-65
2023/03/09 15:05:37;;;;;;;;;;;;;;;;;;5016371;28;9071;-65
2023/03/09 15:08:03;;;;;;;;;;;;;;;;;;5016035;28;6935;-65
2023/03/09 15:10:29;;;;;;;;;;;;;;;;;;5014715;28;7196;-65
2023/03/09 15:16:32;;;;;;;;;;;;;;;;;;5015444;28;6704;-65
2023/03/09 15:18:58;;;;;;;;;;;;;;;;;;5015418;28;6852;-65
2023/03/09 15:21:34;;;;;;;;;;;;;;;;;;5015541;28;7183;-65
2023/03/09 15:24:00;;;;;;;;;;;;;;;;;;5015479;28;7125;-65
2023/03/09 15:32:26;;;;;;;;;;;;;;;;;;5015764;28;6950;-66
2023/03/09 15:34:55;;;;;;;;;;;;;;;;;;5015168;28;7029;-66
2023/03/09 15:37:20;;;;;;;;;;;;;;;;;;5015359;28;7243;-66
2023/03/09 15:42:49;;;;;;;;;;;;;;;;;;5015023;28;7569;-66
2023/03/09 15:45:38;;;;;;;;;;;;;;;;;;5015291;28;7338;-66
2023/03/09 15:48:04;;;;;;;;;;;;;;;;;;5015730;28;8738;-66
2023/03/09 15:50:54;;;;;;;;;;;;;;;;;;5015103;28;6964;-66
2023/03/09 15:53:19;;;;;;;;;;;;;;;;;;5015146;28;7144;-66
2023/03/09 15:56:09;;;;;;;;;;;;;;;;;;5015224;28;6943;-65
2023/03/09 15:58:36;;;;;;;;;;;;;;;;;;5014710;28;6978;-65
2023/03/09 16:01:12;;;;;;;;;;;;;;;;;;5014834;28;7039;-65
2023/03/09 16:03:39;;;;;;;;;;;;;;;;;;5014592;28;7384;-65
2023/03/09 16:06:06;;;;;;;;;;;;;;;;;;5015024;28;7112;-65
2023/03/09 16:09:05;;;;;;;;;;;;;;;;;;5015913;28;7148;-65
2023/03/09 16:11:30;;;;;;;;;;;;;;;;;;5015232;28;7445;-65
2023/03/09 16:13:56;;;;;;;;;;;;;;;;;;5014855;28;7214;-65
2023/03/09 16:16:55;;;;;;;;;;;;;;;;;;5016133;28;7241;-65
2023/03/09 16:19:21;;;;;;;;;;;;;;;;;;5014511;28;6967;-65
2023/03/09 16:21:57;;;;;;;;;;;;;;;;;;5018295;28;7101;-65
2023/03/09 16:24:23;;;;;;;;;;;;;;;;;;5018687;28;7019;-65
2023/03/09 16:30:02;;;;;;;;;;;;;;;;;;5017608;28;6979;-65
2023/03/09 16:32:28;;;;;;;;;;;;;;;;;;5018148;28;7164;-65
2023/03/09 16:35:18;;;;;;;;;;;;;;;;;;5018708;28;6908;-69
2023/03/09 16:37:44;;;;;;;;;;;;;;;;;;5018837;28;7111;-69
2023/03/09 16:40:10;;;;;;;;;;;;;;;;;;5018518;28;7228;-69
2023/03/09 16:42:36;;;;;;;;;;;;;;;;;;5017105;28;7059;-69
2023/03/09 16:45:03;;;;;;;;;;;;;;;;;;5018279;28;7090;-69
2023/03/09 16:50:41;;;;;;;;;;;;;;;;;;5018362;28;6936;-70
2023/03/09 16:53:07;;;;;;;;;;;;;;;;;;5018302;28;7352;-70
2023/03/09 16:55:32;;;;;;;;;;;;;;;;;;5018428;28;7505;-70
2023/03/09 17:01:01;;;;;;;;;;;;;;;;;;5018159;28;6924;-70
2023/03/09 17:03:27;;;;;;;;;;;;;;;;;;5017014;28;7422;-70
2023/03/09 17:05:53;;;;;;;;;;;;;;;;;;5018213;28;7026;-70
2023/03/09 17:11:40;;;;;;;;;;;;;;;;;;5017937;28;6681;-70
2023/03/09 17:14:13;;;;;;;;;;;;;;;;;;5016981;28;7034;-71
2023/03/09 17:16:39;;;;;;;;;;;;;;;;;;5013132;28;7164;-70
2023/03/09 17:22:10;;;;;;;;;;;;;;;;;;5017578;28;7200;-66
2023/03/09 17:24:36;;;;;;;;;;;;;;;;;;5017554;28;7168;-66
2023/03/09 17:27:02;;;;;;;;;;;;;;;;;;5017889;28;7046;-66
2023/03/09 17:29:41;;;;;;;;;;;;;;;;;;5017464;28;7031;-66
2023/03/09 17:32:07;;;;;;;;;;;;;;;;;;5016807;28;7287;-66
2023/03/09 17:34:40;;;;;;;;;;;;;;;;;;5017530;28;7172;-66
2023/03/09 17:37:05;;;;;;;;;;;;;;;;;;5017227;28;7199;-66
2023/03/09 17:42:33;;;;;;;;;;;;;;;;;;5017233;28;6693;-66
2023/03/09 17:44:59;;;;;;;;;;;;;;;;;;5017597;28;7248;-65
2023/03/09 17:47:58;;;;;;;;;;;;;;;;;;5017428;28;7205;-65
2023/03/09 17:50:23;;;;;;;;;;;;;;;;;;5017416;28;7054;-66
2023/03/09 17:52:50;;;;;;;;;;;;;;;;;;5018028;28;7369;-66
2023/03/09 17:55:15;;;;;;;;;;;;;;;;;;5017393;28;7149;-66
2023/03/09 18:00:44;;;;;;;;;;;;;;;;;;5017082;28;6701;-66
2023/03/09 18:03:09;;;;;;;;;;;;;;;;;;5014237;28;7199;-66
2023/03/09 18:05:48;;;;;;;;;;;;;;;;;;4978048;28;7208;-66
2023/03/09 18:08:14;;;;;;;;;;;;;;;;;;4978215;28;6800;-66
2023/03/09 18:10:46;;;;;;;;;;;;;;;;;;4977921;28;7067;-65
2023/03/09 18:13:12;;;;;;;;;;;;;;;;;;4978458;28;6921;-66
2023/03/09 18:15:39;;;;;;;;;;;;;;;;;;4977497;28;7163;-66
2023/03/09 18:21:14;;;;;;;;;;;;;;;;;;4977500;28;6904;-66
2023/03/09 18:23:40;;;;;;;;;;;;;;;;;;4977569;28;6944;-65
2023/03/09 18:26:15;;;;;;;;;;;;;;;;;;4977646;28;7613;-65
2023/03/09 18:28:40;;;;;;;;;;;;;;;;;;4977354;28;6953;-66
2023/03/09 18:31:14;;;;;;;;;;;;;;;;;;4977248;28;7184;-66
2023/03/09 18:33:40;;;;;;;;;;;;;;;;;;4977447;28;7144;-66
2023/03/09 18:36:22;;;;;;;;;;;;;;;;;;4977493;28;7425;-66
2023/03/09 18:38:49;;;;;;;;;;;;;;;;;;4977303;28;7155;-69
2023/03/09 18:44:07;;;;;;;;;;;;;;;;;;4977520;28;7173;-70
2023/03/09 18:49:35;;;;;;;;;;;;;;;;;;4977016;28;6678;-69
2023/03/09 18:52:30;;;;;;;;;;;;;;;;;;4977119;28;7143;-70
2023/03/09 18:54:55;;;;;;;;;;;;;;;;;;4976788;28;7201;-70
2023/03/09 18:57:37;;;;;;;;;;;;;;;;;;4976897;28;7215;-70
2023/03/09 19:00:03;;;;;;;;;;;;;;;;;;4976719;28;7415;-70
2023/03/09 19:02:29;;;;;;;;;;;;;;;;;;4959509;28;8688;-70
2023/03/09 19:04:55;;;;;;;;;;;;;;;;;;5062930;23;7080;-66
2023/03/09 19:13:27;;;;;;;;;;;;;;;;;;5030900;28;6680;-66
2023/03/09 19:25:01;;;;;;;;;;;;;;;;;;5015372;28;7043;-65
2023/03/09 19:27:26;;;;;;;;;;;;;;;;;;4998383;28;8778;-66
2023/03/09 19:29:52;;;;;;;;;;;;;;;;;;5015493;28;6915;-66
2023/03/09 19:32:17;;;;;;;;;;;;;;;;;;5016106;28;7020;-66
2023/03/09 19:34:43;;;;;;;;;;;;;;;;;;5015978;28;7391;-66
2023/03/09 19:37:08;;;;;;;;;;;;;;;;;;5015316;28;7445;-66
2023/03/09 19:39:39;;;;;;;;;;;;;;;;;;5015244;28;7377;-65
2023/03/09 19:42:06;;;;;;;;;;;;;;;;;;5015206;28;8273;-66
2023/03/09 19:47:42;;;;;;;;;;;;;;;;;;5015384;28;6741;-66
2023/03/09 19:50:09;;;;;;;;;;;;;;;;;;5015157;28;6958;-66
2023/03/09 19:52:46;;;;;;;;;;;;;;;;;;5034148;28;7195;-66
2023/03/09 19:55:24;;;;;;;;;;;;;;;;;;5034556;28;7606;-66
2023/03/09 19:57:50;;;;;;;;;;;;;;;;;;5034587;28;7298;-66
2023/03/09 20:00:15;;;;;;;;;;;;;;;;;;5034578;28;7141;-66
2023/03/09 20:02:54;;;;;;;;;;;;;;;;;;5000031;28;8935;-66
2023/03/09 20:05:20;;;;;;;;;;;;;;;;;;5022939;28;7134;-66
2023/03/09 20:07:45;;;;;;;;;;;;;;;;;;5034804;28;7029;-66
2023/03/09 20:10:17;;;;;;;;;;;;;;;;;;5023744;28;7105;-66
2023/03/09 20:12:42;;;;;;;;;;;;;;;;;;5014804;28;7186;-66
2023/03/09 20:15:16;;;;;;;;;;;;;;;;;;5014834;28;7018;-66
2023/03/09 20:17:42;;;;;;;;;;;;;;;;;;5034371;28;7133;-66
2023/03/09 20:23:36;;;;;;;;;;;;;;;;;;5021031;28;6701;-66
2023/03/09 20:26:06;;;;;;;;;;;;;;;;;;5015076;28;7391;-66
2023/03/09 20:28:41;;;;;;;;;;;;;;;;;;5014210;28;7291;-66
2023/03/09 20:31:12;;;;;;;;;;;;;;;;;;5014702;28;7335;-66
2023/03/09 20:33:38;;;;;;;;;;;;;;;;;;5014387;28;7175;-66
2023/03/09 20:36:04;;;;;;;;;;;;;;;;;;5014730;28;7307;-65
2023/03/09 20:38:46;;;;;;;;;;;;;;;;;;5014611;28;7222;-66
2023/03/09 20:41:14;;;;;;;;;;;;;;;;;;5014807;28;6954;-66
2023/03/09 20:43:41;;;;;;;;;;;;;;;;;;5014567;28;7037;-66
2023/03/09 20:49:10;;;;;;;;;;;;;;;;;;5014318;28;6939;-66
2023/03/09 20:51:37;;;;;;;;;;;;;;;;;;5014652;28;7506;-65
2023/03/09 20:54:03;;;;;;;;;;;;;;;;;;4994763;28;7079;-66
2023/03/09 20:56:52;;;;;;;;;;;;;;;;;;4995025;28;7048;-66
2023/03/09 20:59:17;;;;;;;;;;;;;;;;;;4994503;28;8129;-67
2023/03/09 21:01:52;;;;;;;;;;;;;;;;;;4994964;28;7475;-66
2023/03/09 21:04:52;;;;;;;;;;;;;;;;;;4994890;28;7216;-66
2023/03/09 21:07:18;;;;;;;;;;;;;;;;;;4994985;28;7177;-66
2023/03/09 21:10:02;;;;;;;;;;;;;;;;;;4998532;28;7198;-65
2023/03/09 21:12:28;;;;;;;;;;;;;;;;;;4999316;28;7183;-66
2023/03/09 21:14:56;;;;;;;;;;;;;;;;;;4998461;28;7271;-66
2023/03/09 21:17:22;;;;;;;;;;;;;;;;;;4998483;28;7212;-66
2023/03/09 21:22:53;;;;;;;;;;;;;;;;;;4998057;28;6813;-65